createdAt,value
2022-12-22T00:04:50.870Z,0.1
2022-12-22T00:09:51.047Z,0.2
2022-12-22T00:14:51.763Z,0.2
2022-12-22T00:19:51.041Z,0.2
2022-12-22T00:24:51.001Z,0.2
2022-12-22T00:29:50.906Z,0.2
2022-12-22T00:39:50.673Z,0.2
2022-12-22T00:44:50.663Z,0.2
2022-12-22T00:49:50.597Z,0.3
2022-12-22T00:54:50.616Z,0.2
2022-12-22T00:59:50.643Z,0.2
2022-12-22T01:04:50.655Z,0.2
2022-12-22T01:09:50.668Z,0.2
2022-12-22T01:14:50.679Z,0.2
2022-12-22T01:19:51.527Z,0.2
2022-12-22T01:24:50.822Z,0.1
2022-12-22T01:29:50.813Z,0.2
2022-12-22T01:34:50.583Z,0.1
2022-12-22T01:39:50.822Z,0.1
2022-12-22T01:54:50.672Z,0.2
2022-12-22T01:59:50.646Z,0.2
2022-12-22T02:04:50.571Z,0.2
2022-12-22T02:09:50.593Z,0.2
2022-12-22T02:14:50.560Z,0.2
2022-12-22T02:19:50.579Z,0.2
2022-12-22T02:24:51.087Z,0.1
2022-12-22T02:29:50.597Z,0.2
2022-12-22T02:34:50.585Z,0.3
2022-12-22T02:39:51.107Z,0.2
2022-12-22T02:44:50.637Z,0.2
2022-12-22T02:49:50.585Z,0.2
2022-12-22T02:54:50.745Z,0.2
2022-12-22T02:59:50.611Z,0.2
2022-12-22T03:04:50.581Z,0.1
2022-12-22T03:09:51.188Z,0.2
2022-12-22T03:14:50.593Z,0.2
2022-12-22T03:19:50.626Z,0.1
2022-12-22T03:24:50.577Z,0.2
2022-12-22T03:29:50.580Z,0.2
2022-12-22T03:34:50.673Z,0.2
2022-12-22T03:39:50.600Z,0.2
2022-12-22T03:44:50.588Z,0.2
2022-12-22T03:49:50.699Z,0.2
2022-12-22T03:54:50.688Z,0.1
2022-12-22T03:59:50.626Z,0.2
2022-12-22T04:04:50.601Z,0.2
2022-12-22T04:09:52.040Z,0.2
2022-12-22T04:14:53.157Z,0.2
2022-12-22T04:19:50.682Z,0.2
2022-12-22T04:24:50.739Z,0.2
2022-12-22T04:29:50.655Z,0.3
2022-12-22T04:34:50.783Z,0.1
2022-12-22T04:39:50.723Z,0.2
2022-12-22T04:44:50.628Z,0.3
2022-12-22T04:49:50.657Z,0.2
2022-12-22T04:54:50.842Z,0.2
2022-12-22T04:59:50.697Z,0.2
2022-12-22T05:04:50.646Z,0.2
2022-12-22T05:09:50.630Z,0.2
2022-12-22T05:14:50.710Z,0.2
2022-12-22T05:19:50.628Z,0.2
2022-12-22T05:24:50.641Z,0.2
2022-12-22T05:29:50.735Z,0.2
2022-12-22T05:34:50.646Z,0.2
2022-12-22T05:39:50.678Z,0.2
2022-12-22T05:44:50.632Z,0.2
2022-12-22T05:49:50.648Z,0.2
2022-12-22T05:54:50.705Z,0.3
2022-12-22T05:59:50.685Z,0.2
2022-12-22T06:04:50.637Z,0.2
2022-12-22T06:09:50.653Z,0.2
2022-12-22T06:14:50.695Z,0.1
2022-12-22T06:19:50.729Z,0.2
2022-12-22T06:24:50.666Z,0.2
2022-12-22T06:29:50.654Z,0.2
2022-12-22T06:34:50.680Z,0.2
2022-12-22T06:39:50.766Z,0.2
2022-12-22T06:44:50.774Z,0.2
2022-12-22T06:49:50.653Z,0.3
2022-12-22T06:54:50.674Z,0.2
2022-12-22T06:59:57.359Z,0.2
2022-12-22T07:04:50.696Z,0.2
2022-12-22T07:09:50.689Z,0.2
2022-12-22T07:14:50.797Z,0.2
2022-12-22T07:19:50.707Z,0.2
2022-12-22T07:24:50.816Z,0.3
2022-12-22T07:29:50.720Z,0.4
2022-12-22T07:34:50.789Z,0.5
2022-12-22T07:39:50.702Z,0.4
2022-12-22T07:44:50.694Z,0.4
2022-12-22T07:49:50.670Z,0.5
2022-12-22T07:54:50.849Z,0.4
2022-12-22T07:59:50.850Z,0.6
2022-12-22T08:04:50.805Z,0.12
2022-12-22T08:09:50.748Z,0.12
2022-12-22T08:14:50.894Z,0.13
2022-12-22T08:19:50.716Z,0.21
2022-12-22T08:24:50.737Z,0.26
2022-12-22T08:29:50.837Z,0.15
2022-12-22T08:34:50.665Z,0.12
2022-12-22T08:39:50.710Z,0.39
2022-12-22T08:44:50.697Z,0.49
2022-12-22T08:49:50.691Z,0.25
2022-12-22T08:54:50.789Z,0.2
2022-12-22T08:59:50.678Z,0.35
2022-12-22T09:04:50.769Z,0.42
2022-12-22T09:09:50.932Z,0.3
2022-12-22T09:14:50.747Z,0.22
2022-12-22T09:19:50.816Z,0.42
2022-12-22T09:24:50.936Z,0.39
2022-12-22T09:29:50.791Z,0.24
2022-12-22T09:34:50.808Z,0.47
2022-12-22T09:39:50.898Z,0.49
2022-12-22T09:44:50.735Z,0.26
2022-12-22T09:49:50.751Z,0.35
2022-12-22T09:54:50.946Z,0.46
2022-12-22T09:59:50.696Z,0.48
2022-12-22T10:04:50.668Z,0.28
2022-12-22T10:09:52.792Z,0.61
2022-12-22T10:14:50.689Z,0.61
2022-12-22T10:19:50.704Z,0.35
2022-12-22T10:24:50.832Z,0.35
2022-12-22T10:29:50.789Z,0.42
2022-12-22T10:34:51.202Z,0.23
2022-12-22T10:39:50.763Z,0.25
2022-12-22T10:44:50.709Z,0.39
2022-12-22T10:54:50.796Z,0.3
2022-12-22T10:59:50.706Z,0.25
2022-12-22T11:04:50.747Z,0.21
2022-12-22T11:09:50.856Z,0.15
2022-12-22T11:14:50.725Z,0.15
2022-12-22T11:19:50.696Z,0.13
2022-12-22T11:24:50.715Z,0.11
2022-12-22T11:29:50.712Z,0.1
2022-12-22T11:34:50.781Z,0.7
2022-12-22T11:39:57.399Z,0.9
2022-12-22T11:44:50.713Z,0.6
2022-12-22T11:49:50.926Z,0.5
2022-12-22T11:54:50.934Z,0.4
2022-12-22T11:59:50.736Z,0.5
2022-12-22T12:04:50.777Z,0.5
2022-12-22T12:09:50.752Z,0.5
2022-12-22T12:14:50.937Z,0.4
2022-12-22T12:19:50.799Z,0.4
2022-12-22T12:24:50.842Z,0.4
2022-12-22T12:30:06.358Z,0.5
2022-12-22T12:34:50.879Z,0.4
2022-12-22T12:39:50.800Z,0.4
2022-12-22T12:44:50.905Z,0.3
2022-12-22T12:49:50.779Z,0.4
2022-12-22T12:54:50.987Z,0.4
2022-12-22T12:59:50.754Z,0.3
2022-12-22T13:04:50.711Z,0.3
2022-12-22T13:09:53.149Z,0.3
2022-12-22T13:14:51.037Z,0.2
2022-12-22T13:19:50.812Z,0.3
2022-12-22T13:24:50.957Z,0.3
2022-12-22T13:29:50.801Z,0.3
2022-12-22T13:35:29.524Z,0.3
2022-12-22T13:39:50.983Z,0.2
2022-12-22T13:44:50.807Z,0.3
2022-12-22T13:50:08.175Z,0.3
2022-12-22T13:54:50.860Z,0.3
2022-12-22T13:59:50.943Z,0.3
2022-12-22T14:04:55.985Z,0.3
2022-12-22T14:09:50.958Z,0.3
2022-12-22T14:14:51.170Z,0.1
2022-12-22T14:19:50.794Z,0.2
2022-12-22T14:24:50.955Z,0.2
2022-12-22T14:29:50.843Z,0.2
2022-12-22T14:34:50.778Z,0.2
2022-12-22T14:39:50.984Z,0.3
2022-12-22T14:44:50.962Z,0.3
2022-12-22T14:49:50.798Z,0.2
2022-12-22T14:54:50.996Z,0.2
2022-12-22T14:59:51.058Z,0.2
2022-12-22T15:04:50.846Z,0.2
2022-12-22T15:10:15.904Z,0.2
2022-12-22T15:14:50.900Z,0.2
2022-12-22T15:19:50.876Z,0.2
2022-12-22T15:24:50.991Z,0.2
2022-12-22T15:29:51.317Z,0.2
2022-12-22T15:34:50.787Z,0.2
2022-12-22T15:39:50.851Z,0.2
2022-12-22T15:44:57.106Z,0.3
2022-12-22T15:49:50.975Z,0.1
2022-12-22T15:54:50.981Z,0.2
2022-12-22T15:59:53.122Z,0.2
2022-12-22T16:09:55.888Z,0.2
2022-12-22T16:14:55.873Z,0.2
2022-12-22T16:19:55.837Z,0.2
2022-12-22T16:25:09.959Z,0.2
2022-12-22T16:29:57.100Z,0.2
2022-12-22T16:34:55.817Z,0.2
2022-12-22T16:39:56.275Z,0.3
2022-12-22T16:49:55.881Z,0.2
2022-12-22T16:54:55.986Z,0.1
2022-12-22T16:59:55.983Z,0.2
2022-12-22T17:04:57.205Z,0.2
2022-12-22T17:09:56.008Z,0.1
2022-12-22T17:14:55.785Z,0.2
2022-12-22T17:24:56.283Z,0.2
2022-12-22T17:29:55.837Z,0.2
2022-12-22T17:35:11.339Z,0.2
2022-12-22T17:39:57.744Z,0.2
2022-12-22T17:44:57.620Z,0.3
2022-12-22T17:54:57.011Z,0.2
2022-12-22T17:59:59.211Z,0.2
2022-12-22T18:05:07.851Z,0.1
2022-12-22T18:09:57.170Z,0.2
2022-12-22T18:14:56.959Z,0.2
2022-12-22T18:19:56.926Z,0.3
2022-12-22T18:24:56.950Z,0.2
2022-12-22T18:29:57.098Z,0.1
2022-12-22T18:34:57.896Z,0.1
2022-12-22T18:39:56.956Z,0.1
2022-12-22T18:44:56.886Z,0.2
2022-12-22T18:50:01.139Z,0.2
2022-12-22T18:54:57.252Z,0.3
2022-12-22T18:59:56.869Z,0.3
2022-12-22T19:04:56.975Z,0.2
2022-12-22T19:09:56.853Z,0.2
2022-12-22T19:14:56.799Z,0.2
2022-12-22T19:19:56.906Z,0.2
2022-12-22T19:24:56.905Z,0.2
2022-12-22T19:30:04.311Z,0.2
2022-12-22T19:34:57.923Z,0.2
2022-12-22T19:39:57.919Z,0.1
2022-12-22T19:44:58.214Z,0.1
2022-12-22T19:49:57.901Z,0.3
2022-12-22T19:54:58.017Z,0.2
2022-12-22T19:59:57.847Z,0.3
2022-12-22T20:04:58.076Z,0.2
2022-12-22T20:09:57.952Z,0.2
2022-12-22T20:15:08.437Z,0.2
2022-12-22T20:19:57.850Z,0.2
2022-12-22T20:24:58.151Z,0.2
2022-12-22T20:29:57.890Z,0.2
2022-12-22T20:34:57.924Z,0.2
2022-12-22T20:39:58.045Z,0.2
2022-12-22T20:45:04.606Z,0.2
2022-12-22T20:49:57.963Z,0.1
2022-12-22T20:54:57.951Z,0.2
2022-12-22T21:00:02.569Z,0.2
2022-12-22T21:04:57.918Z,0.2
2022-12-22T21:09:57.948Z,0.2
2022-12-22T21:14:58.913Z,0.2
2022-12-22T21:20:04.297Z,0.2
2022-12-22T21:25:09.076Z,0.3
2022-12-22T21:30:18.544Z,0.1
2022-12-22T21:35:08.200Z,0.2
2022-12-22T21:40:09.467Z,0.2
2022-12-22T21:45:02.966Z,0.2
2022-12-22T21:50:03.085Z,0.1
2022-12-22T21:55:03.066Z,0.2
2022-12-22T22:00:03.151Z,0.2
2022-12-22T22:05:02.939Z,0.2
2022-12-22T22:10:03.328Z,0.2
2022-12-22T22:15:02.911Z,0.2
2022-12-22T22:20:25.540Z,0.2
2022-12-22T22:25:13.989Z,0.2
2022-12-22T22:30:02.940Z,0.2
2022-12-22T22:35:02.958Z,0.1
2022-12-22T22:40:03.757Z,0.1
2022-12-22T22:45:03.976Z,0.1
2022-12-22T22:50:04.299Z,0.1
2022-12-22T22:55:03.114Z,0.2
2022-12-22T23:00:07.295Z,0.2
2022-12-22T23:05:03.180Z,0.2
2022-12-22T23:10:14.862Z,0.2
2022-12-22T23:15:04.362Z,0.1
2022-12-22T23:20:03.334Z,0.2
2022-12-22T23:25:17.357Z,0.2
2022-12-22T23:30:03.209Z,0.2
2022-12-22T23:35:03.261Z,0.2
2022-12-22T23:40:52.744Z,0.2
2022-12-22T23:45:27.928Z,0.2
2022-12-22T23:50:03.123Z,0.1
2022-12-22T23:55:03.351Z,0.3
